Time;durP1;ratioP1;P1;durP2;ratioP2;P2;SDS_P1;SDS_P2;PMS_P1;PMS_P2;Temp;Humidity;BMP_temperature;BMP_pressure;BME280_temperature;BME280_humidity;BME280_pressure;Samples;Min_cycle;Max_cycle;Signal;HPM_P1;HPM_P2
2023/08/05 00:01:31;;;;;;;5.70;4.00;;;;;;;;;;5090404;28;20186;-68
2023/08/05 00:03:58;;;;;;;4.00;3.60;;;;;;;;;;5068829;28;20299;-67
2023/08/05 00:06:24;;;;;;;4.67;3.70;;;;;;;;;;5088235;28;20197;-67
2023/08/05 00:08:51;;;;;;;8.37;3.37;;;;;;;;;;5089477;28;20197;-67
2023/08/05 00:11:18;;;;;;;6.93;3.70;;;;;;;;;;5086299;28;20212;-67
2023/08/05 00:13:45;;;;;;;6.27;3.40;;;;;;;;;;5090348;28;20193;-67
2023/08/05 00:16:14;;;;;;;4.10;3.70;;;;;;;;;;5090759;28;20220;-67
2023/08/05 00:18:40;;;;;;;7.13;3.37;;;;;;;;;;5091126;28;20178;-67
2023/08/05 00:21:07;;;;;;;8.73;3.43;;;;;;;;;;5090627;28;20209;-67
2023/08/05 00:23:34;;;;;;;4.63;3.33;;;;;;;;;;5089653;28;20209;-65
2023/08/05 00:26:00;;;;;;;5.77;3.80;;;;;;;;;;5085547;28;20174;-66
2023/08/05 00:28:27;;;;;;;9.57;3.40;;;;;;;;;;5086456;28;20259;-66
2023/08/05 00:30:54;;;;;;;7.20;3.20;;;;;;;;;;5087448;28;20267;-66
2023/08/05 00:33:20;;;;;;;3.93;3.00;;;;;;;;;;5071582;28;20217;-66
2023/08/05 00:35:47;;;;;;;4.83;2.83;;;;;;;;;;5070971;28;20211;-67
2023/08/05 00:38:14;;;;;;;4.60;3.20;;;;;;;;;;5068899;28;20190;-66
2023/08/05 00:40:43;;;;;;;3.97;3.37;;;;;;;;;;5089492;28;20619;-66
2023/08/05 00:43:09;;;;;;;4.47;3.40;;;;;;;;;;5088144;28;20290;-66
2023/08/05 00:45:36;;;;;;;71.77;6.20;;;;;;;;;;5088230;28;20213;-66
2023/08/05 00:48:03;;;;;;;5.03;3.30;;;;;;;;;;5088278;28;21613;-66
2023/08/05 00:50:30;;;;;;;5.77;3.50;;;;;;;;;;5076306;28;20200;-66
2023/08/05 00:52:56;;;;;;;5.67;3.77;;;;;;;;;;5071328;28;20178;-66
2023/08/05 00:55:23;;;;;;;6.87;3.30;;;;;;;;;;5067240;28;20760;-66
2023/08/05 00:57:50;;;;;;;5.43;3.10;;;;;;;;;;5088236;28;20679;-66
2023/08/05 01:00:17;;;;;;;9.33;3.73;;;;;;;;;;5053634;28;20255;-66
2023/08/05 01:02:43;;;;;;;8.93;3.40;;;;;;;;;;5087744;28;20221;-66
2023/08/05 01:05:11;;;;;;;8.73;4.10;;;;;;;;;;5048074;28;20217;-66
2023/08/05 01:07:39;;;;;;;41.80;5.17;;;;;;;;;;5052888;28;20190;-66
2023/08/05 01:10:06;;;;;;;5.60;3.93;;;;;;;;;;5074481;28;20276;-66
2023/08/05 01:44:33;;;;;;;3.50;3.20;;;;;;;;;;5068574;28;20228;-66
2023/08/05 01:47:00;;;;;;;15.30;3.37;;;;;;;;;;5071214;28;20192;-66
2023/08/05 01:49:26;;;;;;;4.80;3.50;;;;;;;;;;5087667;28;20255;-66
2023/08/05 01:51:53;;;;;;;4.37;3.03;;;;;;;;;;5072706;28;20196;-66
2023/08/05 01:54:20;;;;;;;4.40;3.10;;;;;;;;;;5086847;28;20178;-66
2023/08/05 01:56:46;;;;;;;4.33;3.30;;;;;;;;;;5089280;28;20241;-65
2023/08/05 01:59:15;;;;;;;4.90;3.03;;;;;;;;;;5070232;28;20190;-66
2023/08/05 02:01:45;;;;;;;5.00;2.90;;;;;;;;;;5070320;28;20266;-66
2023/08/05 02:04:12;;;;;;;8.60;3.63;;;;;;;;;;5062913;28;20225;-66
2023/08/05 02:06:39;;;;;;;6.53;3.30;;;;;;;;;;5083361;28;20194;-66
2023/08/05 02:09:23;;;;;;;4.27;3.33;;;;;;;;;;5056745;28;20268;-66
2023/08/05 02:11:49;;;;;;;3.67;3.37;;;;;;;;;;5092603;28;20612;-66
2023/08/05 02:14:33;;;;;;;5.20;3.23;;;;;;;;;;5073379;28;20306;-66
2023/08/05 02:17:00;;;;;;;3.80;3.07;;;;;;;;;;5092482;28;20193;-65
2023/08/05 02:19:44;;;;;;;4.33;3.00;;;;;;;;;;5089884;28;20173;-68
2023/08/05 02:22:12;;;;;;;4.47;3.60;;;;;;;;;;5086860;28;20198;-66
2023/08/05 02:24:56;;;;;;;5.00;3.80;;;;;;;;;;5074557;28;20258;-66
2023/08/05 02:27:23;;;;;;;4.77;3.23;;;;;;;;;;5067642;28;20242;-66
2023/08/05 02:30:10;;;;;;;6.00;3.70;;;;;;;;;;5072516;28;20177;-66
2023/08/05 02:32:37;;;;;;;5.47;3.83;;;;;;;;;;5073885;28;20250;-66
2023/08/05 02:35:21;;;;;;;5.10;3.40;;;;;;;;;;5092283;28;20180;-66
2023/08/05 02:37:48;;;;;;;8.23;3.80;;;;;;;;;;5090195;28;20227;-66
2023/08/05 02:40:15;;;;;;;7.40;3.70;;;;;;;;;;5077356;28;20180;-66
2023/08/05 02:42:43;;;;;;;7.73;3.50;;;;;;;;;;5074927;28;20190;-66
2023/08/05 02:45:09;;;;;;;5.80;3.90;;;;;;;;;;5070694;28;20279;-66
2023/08/05 02:47:36;;;;;;;6.47;3.97;;;;;;;;;;5073903;28;20272;-66
2023/08/05 02:50:03;;;;;;;5.47;4.10;;;;;;;;;;5071756;28;20246;-66
2023/08/05 02:52:30;;;;;;;4.77;3.97;;;;;;;;;;5091151;28;20185;-66
2023/08/05 02:54:57;;;;;;;11.23;4.83;;;;;;;;;;5072408;28;20189;-66
2023/08/05 02:57:24;;;;;;;6.40;4.47;;;;;;;;;;5072766;28;20200;-66
2023/08/05 02:59:51;;;;;;;5.33;3.30;;;;;;;;;;5062750;28;20201;-66
2023/08/05 03:02:35;;;;;;;5.53;2.90;;;;;;;;;;5075853;28;20177;-66
2023/08/05 03:05:02;;;;;;;4.27;2.80;;;;;;;;;;5091145;28;20225;-66
2023/08/05 03:07:29;;;;;;;6.47;3.10;;;;;;;;;;5058524;28;20277;-66
2023/08/05 03:09:55;;;;;;;6.07;2.87;;;;;;;;;;5063976;28;20193;-66
2023/08/05 03:12:22;;;;;;;3.83;3.00;;;;;;;;;;5086530;28;20252;-66
2023/08/05 03:14:53;;;;;;;4.50;3.17;;;;;;;;;;5057582;28;20243;-66
2023/08/05 03:17:20;;;;;;;4.50;2.93;;;;;;;;;;5071729;28;20649;-66
2023/08/05 03:19:52;;;;;;;12.07;3.53;;;;;;;;;;5058865;28;20205;-67
2023/08/05 03:22:21;;;;;;;3.93;3.07;;;;;;;;;;5055434;28;20292;-66
2023/08/05 03:24:48;;;;;;;4.70;2.80;;;;;;;;;;5073425;28;20237;-66
2023/08/05 03:27:15;;;;;;;6.27;2.63;;;;;;;;;;5069228;28;20194;-66
2023/08/05 03:29:45;;;;;;;3.73;2.63;;;;;;;;;;5073244;28;20197;-66
2023/08/05 03:32:12;;;;;;;3.73;3.00;;;;;;;;;;5073232;28;20200;-66
2023/08/05 03:34:40;;;;;;;3.77;2.80;;;;;;;;;;5089733;28;20777;-66
2023/08/05 03:37:26;;;;;;;6.07;3.27;;;;;;;;;;5090119;28;20178;-66
2023/08/05 03:39:53;;;;;;;4.17;3.20;;;;;;;;;;5090950;28;20184;-66
2023/08/05 03:42:20;;;;;;;4.27;3.00;;;;;;;;;;5089949;28;20197;-67
2023/08/05 03:44:47;;;;;;;7.83;3.60;;;;;;;;;;5091127;28;20586;-66
2023/08/05 03:47:13;;;;;;;6.53;3.60;;;;;;;;;;5079562;28;20277;-66
2023/08/05 03:49:57;;;;;;;3.70;3.37;;;;;;;;;;5060039;28;20618;-66
2023/08/05 03:52:26;;;;;;;6.57;3.87;;;;;;;;;;5064353;28;20201;-65
2023/08/05 03:54:54;;;;;;;7.00;3.50;;;;;;;;;;5083545;28;20189;-66
2023/08/05 03:57:21;;;;;;;5.37;4.00;;;;;;;;;;5087082;28;20556;-67
2023/08/05 03:59:49;;;;;;;4.87;3.73;;;;;;;;;;5081080;28;20212;-68
2023/08/05 04:02:16;;;;;;;9.27;4.07;;;;;;;;;;5007256;28;20289;-66
2023/08/05 04:04:43;;;;;;;5.83;3.40;;;;;;;;;;5027895;28;20277;-69
2023/08/05 04:07:10;;;;;;;4.90;3.77;;;;;;;;;;5029713;28;20733;-67
2023/08/05 04:09:37;;;;;;;4.70;3.83;;;;;;;;;;5025166;28;20202;-67
2023/08/05 04:12:08;;;;;;;7.40;4.00;;;;;;;;;;5029337;28;20191;-67
2023/08/05 04:14:37;;;;;;;8.87;3.90;;;;;;;;;;5029534;28;20204;-68
2023/08/05 04:17:05;;;;;;;4.10;3.30;;;;;;;;;;5028890;28;20202;-68
2023/08/05 04:19:33;;;;;;;7.17;4.37;;;;;;;;;;5027185;28;20290;-67
2023/08/05 04:22:01;;;;;;;8.07;4.60;;;;;;;;;;5030019;28;20211;-66
2023/08/05 04:24:45;;;;;;;4.90;4.40;;;;;;;;;;5027091;28;20601;-67
2023/08/05 04:27:12;;;;;;;5.40;3.97;;;;;;;;;;5030025;28;20550;-70
2023/08/05 04:29:58;;;;;;;5.50;4.53;;;;;;;;;;5016238;28;20180;-69
2023/08/05 04:32:24;;;;;;;6.47;4.63;;;;;;;;;;5012420;28;20219;-68
2023/08/05 04:35:10;;;;;;;7.00;4.63;;;;;;;;;;5008328;28;20183;-68
2023/08/05 04:37:37;;;;;;;6.53;4.70;;;;;;;;;;5015345;28;20188;-68
2023/08/05 04:40:04;;;;;;;5.30;4.10;;;;;;;;;;5019768;28;20286;-67
2023/08/05 04:42:30;;;;;;;7.23;4.23;;;;;;;;;;5028468;28;20192;-69
2023/08/05 04:44:57;;;;;;;6.77;4.47;;;;;;;;;;5021642;28;20695;-67
2023/08/05 04:47:24;;;;;;;6.80;4.40;;;;;;;;;;5025539;28;20184;-68
2023/08/05 04:49:51;;;;;;;5.77;4.80;;;;;;;;;;5027087;28;21096;-68
2023/08/05 04:52:18;;;;;;;7.47;5.03;;;;;;;;;;5027383;28;20273;-68
2023/08/05 04:54:45;;;;;;;7.07;5.10;;;;;;;;;;5019464;28;20188;-67
2023/08/05 04:57:12;;;;;;;6.17;4.83;;;;;;;;;;5028304;28;21066;-69
2023/08/05 04:59:39;;;;;;;7.00;5.07;;;;;;;;;;5017715;28;20195;-69
2023/08/05 05:02:24;;;;;;;9.10;5.50;;;;;;;;;;5026839;28;20266;-68
2023/08/05 05:04:50;;;;;;;5.57;5.00;;;;;;;;;;5026484;28;20211;-68
2023/08/05 05:07:18;;;;;;;8.30;5.20;;;;;;;;;;5025971;28;20223;-68
2023/08/05 05:09:44;;;;;;;6.47;5.27;;;;;;;;;;5028912;28;20219;-70
2023/08/05 05:12:11;;;;;;;6.20;5.07;;;;;;;;;;5026422;28;20278;-68
2023/08/05 05:14:45;;;;;;;7.13;5.37;;;;;;;;;;5027983;28;20206;-69
2023/08/05 05:17:13;;;;;;;8.70;5.77;;;;;;;;;;5027741;28;20594;-68
2023/08/05 05:19:40;;;;;;;7.13;5.83;;;;;;;;;;5023771;28;20261;-67
2023/08/05 05:22:08;;;;;;;7.23;5.50;;;;;;;;;;5026572;28;20286;-67
2023/08/05 05:24:35;;;;;;;6.53;4.93;;;;;;;;;;5022579;28;20924;-70
2023/08/05 05:27:20;;;;;;;7.93;4.97;;;;;;;;;;5026805;28;20178;-67
2023/08/05 05:29:47;;;;;;;8.07;6.10;;;;;;;;;;5029046;28;20200;-69
2023/08/05 05:32:14;;;;;;;8.67;6.20;;;;;;;;;;5027561;28;20261;-70
2023/08/05 05:34:41;;;;;;;8.03;5.60;;;;;;;;;;5028201;28;20598;-71
2023/08/05 05:37:08;;;;;;;7.77;5.47;;;;;;;;;;5027780;28;20665;-71
2023/08/05 05:39:35;;;;;;;7.40;5.67;;;;;;;;;;5016847;28;20294;-70
2023/08/05 05:42:02;;;;;;;6.70;5.43;;;;;;;;;;5027765;28;20283;-69
2023/08/05 05:44:29;;;;;;;7.50;5.30;;;;;;;;;;5025601;28;20207;-71
2023/08/05 05:46:57;;;;;;;7.43;5.20;;;;;;;;;;5024353;28;20218;-69
2023/08/05 05:49:24;;;;;;;5.07;4.40;;;;;;;;;;5001488;28;20227;-69
2023/08/05 05:51:51;;;;;;;5.73;4.27;;;;;;;;;;5027569;28;20305;-69
2023/08/05 05:54:18;;;;;;;5.23;4.50;;;;;;;;;;4987842;28;20192;-68
2023/08/05 05:56:45;;;;;;;7.37;4.73;;;;;;;;;;5026529;28;20187;-68
2023/08/05 05:59:12;;;;;;;6.10;4.57;;;;;;;;;;5016385;28;20242;-69
2023/08/05 06:01:40;;;;;;;5.73;4.00;;;;;;;;;;5027089;28;20411;-70
2023/08/05 06:04:09;;;;;;;4.90;3.93;;;;;;;;;;5026429;28;20281;-69
2023/08/05 06:06:36;;;;;;;4.13;3.63;;;;;;;;;;5026852;28;20203;-70
2023/08/05 06:09:04;;;;;;;7.37;3.70;;;;;;;;;;5027288;28;20278;-70
2023/08/05 06:11:32;;;;;;;6.23;3.83;;;;;;;;;;5015165;28;20309;-68
2023/08/05 06:14:00;;;;;;;6.80;3.80;;;;;;;;;;5026792;28;20188;-68
2023/08/05 06:16:27;;;;;;;8.50;3.90;;;;;;;;;;4999296;28;20207;-69
2023/08/05 06:18:54;;;;;;;4.23;3.30;;;;;;;;;;5011159;28;20184;-69
2023/08/05 06:21:21;;;;;;;4.97;3.33;;;;;;;;;;5024756;28;20198;-69
2023/08/05 06:23:49;;;;;;;5.93;3.30;;;;;;;;;;5021202;28;20706;-71
2023/08/05 06:26:16;;;;;;;4.07;3.43;;;;;;;;;;5025192;28;20235;-68
2023/08/05 06:28:43;;;;;;;7.07;5.57;;;;;;;;;;5023236;28;20691;-68
2023/08/05 06:31:10;;;;;;;7.60;4.93;;;;;;;;;;5024535;28;20187;-69
2023/08/05 06:33:37;;;;;;;5.80;4.70;;;;;;;;;;5026387;28;20180;-69
2023/08/05 06:36:04;;;;;;;6.23;4.50;;;;;;;;;;5026734;28;20176;-68
2023/08/05 06:38:31;;;;;;;6.23;4.00;;;;;;;;;;5024394;28;20187;-70
2023/08/05 06:40:58;;;;;;;6.70;3.97;;;;;;;;;;5025813;28;20270;-67
2023/08/05 06:43:25;;;;;;;5.27;3.30;;;;;;;;;;5025895;28;20220;-67
2023/08/05 06:45:52;;;;;;;3.73;2.10;;;;;;;;;;5022207;28;20231;-67
2023/08/05 06:48:19;;;;;;;5.03;2.20;;;;;;;;;;5023197;28;20194;-68
2023/08/05 06:50:46;;;;;;;5.43;2.40;;;;;;;;;;5014517;28;20222;-67
2023/08/05 06:53:13;;;;;;;3.50;1.97;;;;;;;;;;5024451;28;20282;-67
2023/08/05 06:55:40;;;;;;;4.53;2.27;;;;;;;;;;5026258;28;20219;-67
2023/08/05 06:58:07;;;;;;;5.30;2.17;;;;;;;;;;5025704;28;20184;-67
2023/08/05 07:00:34;;;;;;;5.57;1.80;;;;;;;;;;5019612;28;20180;-70
2023/08/05 07:03:04;;;;;;;4.93;2.03;;;;;;;;;;5027254;28;20210;-68
2023/08/05 07:05:31;;;;;;;3.77;1.50;;;;;;;;;;5023494;28;20251;-69
2023/08/05 07:07:58;;;;;;;3.87;1.60;;;;;;;;;;5022066;28;20192;-69
2023/08/05 07:10:25;;;;;;;2.57;1.90;;;;;;;;;;5028120;28;20207;-65
2023/08/05 07:12:52;;;;;;;3.20;1.33;;;;;;;;;;5031183;28;20206;-65
2023/08/05 07:15:20;;;;;;;3.57;1.50;;;;;;;;;;5019856;28;20618;-66
2023/08/05 07:17:47;;;;;;;2.33;1.20;;;;;;;;;;4999499;28;20208;-64
2023/08/05 07:20:14;;;;;;;2.97;1.20;;;;;;;;;;5047084;28;20210;-65
2023/08/05 07:22:40;;;;;;;2.30;1.10;;;;;;;;;;5048061;28;20271;-56
2023/08/05 07:25:07;;;;;;;3.67;1.30;;;;;;;;;;5047002;28;20221;-59
2023/08/05 07:27:34;;;;;;;3.13;1.17;;;;;;;;;;5046458;28;20197;-63
2023/08/05 07:30:01;;;;;;;2.77;1.20;;;;;;;;;;5050230;28;20210;-63
2023/08/05 07:32:28;;;;;;;3.13;1.27;;;;;;;;;;5045871;28;20190;-65
2023/08/05 07:34:56;;;;;;;3.73;1.07;;;;;;;;;;5031676;28;20211;-63
2023/08/05 07:37:24;;;;;;;2.73;1.33;;;;;;;;;;5046636;28;20471;-66
2023/08/05 07:39:51;;;;;;;3.23;1.50;;;;;;;;;;5029372;28;20301;-64
2023/08/05 07:42:22;;;;;;;4.33;1.37;;;;;;;;;;5041454;28;20658;-65
2023/08/05 07:44:52;;;;;;;2.77;1.20;;;;;;;;;;5046227;28;20242;-65
2023/08/05 07:47:19;;;;;;;2.73;1.40;;;;;;;;;;5040196;28;20655;-65
2023/08/05 07:49:45;;;;;;;1.57;1.23;;;;;;;;;;5044543;28;20234;-65
2023/08/05 07:52:12;;;;;;;1.93;1.00;;;;;;;;;;5028994;28;20187;-66
2023/08/05 07:54:41;;;;;;;1.87;1.30;;;;;;;;;;5028807;28;20274;-65
2023/08/05 07:57:08;;;;;;;4.27;1.60;;;;;;;;;;5027125;28;20192;-66
2023/08/05 07:59:52;;;;;;;3.40;1.43;;;;;;;;;;5027623;28;20187;-65
2023/08/05 08:02:19;;;;;;;3.13;1.53;;;;;;;;;;5028859;28;20187;-65
2023/08/05 08:05:05;;;;;;;3.13;1.57;;;;;;;;;;5026905;28;20552;-66
2023/08/05 08:07:31;;;;;;;3.47;1.40;;;;;;;;;;5028327;28;20192;-66
2023/08/05 08:09:58;;;;;;;2.73;1.43;;;;;;;;;;5027391;28;20195;-65
2023/08/05 08:12:25;;;;;;;3.50;1.63;;;;;;;;;;5027438;28;20184;-67
2023/08/05 08:14:52;;;;;;;2.10;1.50;;;;;;;;;;5028874;28;20206;-65
2023/08/05 08:17:19;;;;;;;1.67;1.27;;;;;;;;;;5030446;28;20196;-65
2023/08/05 08:19:46;;;;;;;2.30;1.40;;;;;;;;;;5031640;28;20706;-65
2023/08/05 08:22:14;;;;;;;3.07;1.40;;;;;;;;;;5031451;28;20199;-64
2023/08/05 08:24:41;;;;;;;3.20;1.60;;;;;;;;;;5020999;28;20228;-64
2023/08/05 08:27:08;;;;;;;3.27;1.30;;;;;;;;;;5028313;28;20203;-64
2023/08/05 08:29:35;;;;;;;2.40;1.50;;;;;;;;;;5029588;28;20198;-64
2023/08/05 08:32:02;;;;;;;2.33;1.40;;;;;;;;;;5027738;28;20195;-66
2023/08/05 08:34:29;;;;;;;3.20;1.10;;;;;;;;;;5027933;28;20198;-64
2023/08/05 08:36:56;;;;;;;2.27;1.20;;;;;;;;;;5029475;28;20262;-64
2023/08/05 08:39:40;;;;;;;2.20;1.30;;;;;;;;;;5028816;28;20183;-64
2023/08/05 08:42:06;;;;;;;2.93;1.30;;;;;;;;;;5026886;28;20196;-64
2023/08/05 08:44:33;;;;;;;1.93;1.20;;;;;;;;;;5027879;28;20558;-64
2023/08/05 08:47:00;;;;;;;3.37;1.00;;;;;;;;;;5028389;28;20294;-64
2023/08/05 08:49:26;;;;;;;4.23;1.10;;;;;;;;;;5028727;28;20253;-64
2023/08/05 08:51:53;;;;;;;3.43;1.37;;;;;;;;;;5029677;28;20276;-64
2023/08/05 08:54:20;;;;;;;2.50;1.27;;;;;;;;;;5021255;28;20200;-64
2023/08/05 08:56:47;;;;;;;4.50;1.20;;;;;;;;;;4975633;28;20265;-64
2023/08/05 08:59:14;;;;;;;2.90;1.50;;;;;;;;;;5020787;28;20269;-65
2023/08/05 09:01:41;;;;;;;1.97;1.13;;;;;;;;;;5038089;28;20195;-64
2023/08/05 09:04:09;;;;;;;5.20;1.10;;;;;;;;;;5018581;28;20200;-65
2023/08/05 09:06:38;;;;;;;2.03;1.20;;;;;;;;;;5029398;28;20261;-65
2023/08/05 09:09:05;;;;;;;4.27;1.33;;;;;;;;;;5029587;28;20547;-64
2023/08/05 09:11:32;;;;;;;3.27;1.20;;;;;;;;;;5029410;28;20278;-65
2023/08/05 09:13:59;;;;;;;1.83;1.20;;;;;;;;;;5028663;28;20199;-65
2023/08/05 09:16:26;;;;;;;3.53;1.20;;;;;;;;;;5026300;28;20199;-66
2023/08/05 09:18:53;;;;;;;3.17;1.23;;;;;;;;;;5026889;28;20258;-65
2023/08/05 09:21:26;;;;;;;3.47;1.40;;;;;;;;;;5026677;28;20282;-65
2023/08/05 09:23:53;;;;;;;3.27;1.23;;;;;;;;;;5025291;28;20547;-64
2023/08/05 09:26:29;;;;;;;3.67;1.47;;;;;;;;;;5027757;28;20258;-65
2023/08/05 09:29:19;;;;;;;2.57;1.20;;;;;;;;;;4992235;28;20215;-65
2023/08/05 09:31:53;;;;;;;3.23;1.23;;;;;;;;;;5018101;28;20199;-66
2023/08/05 09:34:21;;;;;;;1.57;1.07;;;;;;;;;;5025966;28;20222;-66
2023/08/05 09:36:48;;;;;;;2.50;1.30;;;;;;;;;;5022872;28;20204;-66
2023/08/05 09:39:16;;;;;;;2.30;1.20;;;;;;;;;;5022624;28;20199;-67
2023/08/05 09:41:51;;;;;;;3.10;1.57;;;;;;;;;;5023089;28;20567;-66
2023/08/05 09:44:19;;;;;;;2.83;1.40;;;;;;;;;;5016461;28;20188;-65
2023/08/05 09:46:46;;;;;;;3.83;1.40;;;;;;;;;;5006030;28;20242;-66
2023/08/05 09:49:17;;;;;;;2.47;1.30;;;;;;;;;;5012085;28;20190;-67
2023/08/05 09:51:46;;;;;;;2.53;1.20;;;;;;;;;;5027260;28;20551;-66
2023/08/05 09:54:18;;;;;;;1.97;1.10;;;;;;;;;;5023623;28;20191;-66
2023/08/05 09:56:45;;;;;;;3.17;1.40;;;;;;;;;;5021411;28;20239;-68
2023/08/05 09:59:13;;;;;;;2.60;1.10;;;;;;;;;;5024301;28;20199;-70
2023/08/05 10:01:40;;;;;;;1.70;1.07;;;;;;;;;;5006851;28;20547;-66
2023/08/05 10:04:08;;;;;;;2.07;1.23;;;;;;;;;;5008130;28;20663;-71
2023/08/05 10:06:36;;;;;;;3.10;1.10;;;;;;;;;;5023933;28;20770;-67
2023/08/05 10:09:05;;;;;;;3.37;1.30;;;;;;;;;;5019939;28;20605;-69
2023/08/05 10:11:35;;;;;;;2.77;1.40;;;;;;;;;;5025268;28;20246;-66
2023/08/05 10:14:02;;;;;;;4.23;1.50;;;;;;;;;;5007600;28;20195;-67
2023/08/05 10:16:31;;;;;;;6.50;1.60;;;;;;;;;;5024521;28;20191;-66
2023/08/05 10:18:58;;;;;;;3.30;1.40;;;;;;;;;;5025604;28;20205;-66
2023/08/05 10:21:34;;;;;;;3.30;1.90;;;;;;;;;;5002020;28;20200;-67
2023/08/05 10:24:19;;;;;;;5.60;2.30;;;;;;;;;;5024116;28;20249;-65
2023/08/05 10:26:48;;;;;;;2.83;1.60;;;;;;;;;;5024586;28;20227;-66
2023/08/05 10:29:26;;;;;;;3.10;1.40;;;;;;;;;;5013816;28;20275;-66
2023/08/05 10:32:13;;;;;;;1.80;1.30;;;;;;;;;;5031102;28;20191;-65
2023/08/05 10:34:40;;;;;;;2.53;1.30;;;;;;;;;;5008794;28;20234;-67
2023/08/05 10:37:07;;;;;;;2.20;1.40;;;;;;;;;;5031023;28;20188;-64
2023/08/05 10:39:43;;;;;;;3.27;1.60;;;;;;;;;;5028222;28;20193;-65
2023/08/05 10:42:17;;;;;;;2.60;1.60;;;;;;;;;;5030306;28;20195;-65
2023/08/05 10:44:44;;;;;;;3.57;1.83;;;;;;;;;;5025940;28;20255;-65
2023/08/05 10:47:11;;;;;;;3.80;1.80;;;;;;;;;;5026702;28;20218;-65
2023/08/05 10:49:38;;;;;;;4.90;1.93;;;;;;;;;;5028768;28;20197;-65
2023/08/05 10:52:07;;;;;;;5.67;2.43;;;;;;;;;;5029112;28;20192;-66
2023/08/05 10:54:34;;;;;;;4.43;1.90;;;;;;;;;;5028980;28;20200;-66
2023/08/05 10:57:09;;;;;;;5.70;2.50;;;;;;;;;;5026817;28;20191;-67
2023/08/05 10:59:57;;;;;;;5.90;2.10;;;;;;;;;;5027309;28;20265;-65
2023/08/05 11:02:25;;;;;;;4.60;1.90;;;;;;;;;;5027707;28;20190;-68
2023/08/05 11:05:06;;;;;;;2.50;1.50;;;;;;;;;;5006145;28;20199;-64
2023/08/05 11:07:34;;;;;;;3.53;1.53;;;;;;;;;;5028478;28;20789;-63
2023/08/05 11:10:02;;;;;;;2.03;1.27;;;;;;;;;;5023035;28;21767;-63
2023/08/05 11:12:29;;;;;;;3.43;1.53;;;;;;;;;;5028572;28;21085;-67
2023/08/05 11:14:56;;;;;;;3.63;1.37;;;;;;;;;;5007972;28;20978;-64
2023/08/05 11:17:23;;;;;;;1.93;1.30;;;;;;;;;;5030401;28;20647;-66
2023/08/05 11:19:56;;;;;;;2.60;1.53;;;;;;;;;;5027239;28;20655;-68
2023/08/05 11:22:25;;;;;;;3.13;1.40;;;;;;;;;;5024454;28;20195;-67
2023/08/05 11:25:01;;;;;;;2.20;1.30;;;;;;;;;;5024614;28;20198;-67
2023/08/05 11:27:32;;;;;;;3.80;1.23;;;;;;;;;;5022204;28;20223;-68
2023/08/05 11:30:19;;;;;;;2.17;1.27;;;;;;;;;;5029156;28;20200;-67
2023/08/05 11:32:50;;;;;;;1.63;1.30;;;;;;;;;;5032627;28;20232;-67
2023/08/05 11:35:17;;;;;;;2.40;1.10;;;;;;;;;;5030137;28;20190;-68
2023/08/05 11:37:44;;;;;;;2.13;1.20;;;;;;;;;;5024814;28;20223;-63
2023/08/05 11:40:11;;;;;;;1.33;0.90;;;;;;;;;;5024093;28;20582;-63
2023/08/05 11:42:40;;;;;;;2.00;1.30;;;;;;;;;;5024475;28;20303;-63
2023/08/05 11:45:11;;;;;;;3.03;1.10;;;;;;;;;;5020208;28;20772;-64
2023/08/05 11:47:41;;;;;;;1.27;0.90;;;;;;;;;;5024965;28;20216;-63
2023/08/05 11:50:09;;;;;;;2.70;0.90;;;;;;;;;;5018330;28;20203;-63
2023/08/05 11:52:36;;;;;;;1.90;0.90;;;;;;;;;;5026155;28;20195;-63
2023/08/05 11:55:04;;;;;;;3.40;1.00;;;;;;;;;;5021706;28;20197;-64
2023/08/05 11:57:30;;;;;;;1.67;0.97;;;;;;;;;;5027401;28;20200;-63
2023/08/05 12:00:02;;;;;;;3.23;0.90;;;;;;;;;;5030573;28;20255;-63
2023/08/05 12:02:31;;;;;;;1.70;0.90;;;;;;;;;;5029606;28;20278;-64
2023/08/05 12:04:59;;;;;;;1.97;0.80;;;;;;;;;;5030271;28;20555;-63
2023/08/05 12:07:30;;;;;;;2.03;0.90;;;;;;;;;;5017720;28;20289;-62
2023/08/05 12:10:10;;;;;;;1.27;0.90;;;;;;;;;;5030196;28;20289;-63
2023/08/05 12:12:37;;;;;;;1.17;0.80;;;;;;;;;;5030277;28;20199;-63
2023/08/05 12:15:24;;;;;;;2.23;0.93;;;;;;;;;;5022326;28;20199;-63
2023/08/05 12:17:55;;;;;;;2.93;1.10;;;;;;;;;;5025665;28;20291;-64
2023/08/05 12:20:23;;;;;;;1.20;0.70;;;;;;;;;;5029582;28;20241;-64
2023/08/05 12:22:50;;;;;;;1.30;0.90;;;;;;;;;;5018681;28;20950;-64
2023/08/05 12:25:21;;;;;;;2.10;0.80;;;;;;;;;;5008995;28;20191;-63
2023/08/05 12:27:47;;;;;;;1.57;0.83;;;;;;;;;;5023813;28;20219;-63
2023/08/05 12:30:14;;;;;;;3.73;0.90;;;;;;;;;;5029663;28;20200;-63
2023/08/05 12:32:42;;;;;;;1.67;1.10;;;;;;;;;;5026320;28;20194;-63
2023/08/05 12:35:09;;;;;;;3.43;2.30;;;;;;;;;;4995535;28;20210;-63
2023/08/05 12:37:37;;;;;;;4.10;1.80;;;;;;;;;;5029525;28;20202;-63
2023/08/05 12:40:04;;;;;;;2.80;1.90;;;;;;;;;;5028664;28;20219;-63
2023/08/05 12:42:31;;;;;;;2.57;1.23;;;;;;;;;;5029140;28;20188;-63
2023/08/05 12:45:02;;;;;;;1.60;1.10;;;;;;;;;;5029488;28;20349;-63
2023/08/05 12:47:32;;;;;;;1.33;0.80;;;;;;;;;;5028010;28;20222;-63
2023/08/05 12:49:59;;;;;;;3.70;1.00;;;;;;;;;;5029449;28;20180;-63
2023/08/05 12:52:26;;;;;;;1.70;0.83;;;;;;;;;;5027436;28;20192;-63
2023/08/05 12:54:52;;;;;;;2.13;0.80;;;;;;;;;;5021483;28;20666;-63
2023/08/05 12:57:19;;;;;;;1.00;0.70;;;;;;;;;;5026723;28;20646;-64
2023/08/05 12:59:47;;;;;;;3.27;1.27;;;;;;;;;;5029721;28;20194;-64
2023/08/05 13:02:13;;;;;;;3.53;0.80;;;;;;;;;;5029022;28;20187;-63
2023/08/05 13:04:40;;;;;;;2.03;1.00;;;;;;;;;;5022264;28;20277;-64
2023/08/05 13:07:10;;;;;;;1.37;0.83;;;;;;;;;;5028279;28;20199;-65
2023/08/05 13:09:39;;;;;;;2.10;1.00;;;;;;;;;;5029037;28;20226;-65
2023/08/05 13:12:07;;;;;;;3.13;1.40;;;;;;;;;;5028931;28;20227;-64
2023/08/05 13:14:34;;;;;;;1.30;0.90;;;;;;;;;;5028847;28;20180;-64
2023/08/05 13:17:01;;;;;;;1.60;1.00;;;;;;;;;;5028667;28;20199;-63
2023/08/05 13:19:45;;;;;;;1.40;1.00;;;;;;;;;;5025962;28;20192;-64
2023/08/05 13:22:12;;;;;;;1.97;0.93;;;;;;;;;;5008127;28;20192;-63
2023/08/05 13:24:39;;;;;;;3.20;0.97;;;;;;;;;;5020596;28;20183;-64
2023/08/05 13:27:06;;;;;;;3.60;1.00;;;;;;;;;;5028944;28;20254;-64
2023/08/05 13:29:33;;;;;;;2.73;0.90;;;;;;;;;;5028617;28;20199;-64
2023/08/05 13:32:00;;;;;;;2.27;1.03;;;;;;;;;;5030199;28;20191;-64
2023/08/05 13:34:27;;;;;;;1.50;0.80;;;;;;;;;;5029696;28;20200;-64
2023/08/05 13:36:53;;;;;;;2.33;1.10;;;;;;;;;;5029702;28;20215;-64
2023/08/05 13:39:22;;;;;;;2.80;1.00;;;;;;;;;;5018011;28;20231;-65
2023/08/05 13:41:56;;;;;;;2.30;1.00;;;;;;;;;;5020895;28;20195;-63
2023/08/05 13:44:25;;;;;;;3.90;1.20;;;;;;;;;;5028035;28;20654;-63
2023/08/05 13:46:53;;;;;;;2.10;1.00;;;;;;;;;;5026876;28;20207;-62
2023/08/05 13:49:20;;;;;;;1.90;0.97;;;;;;;;;;5026771;28;20204;-64
2023/08/05 13:51:47;;;;;;;1.13;0.90;;;;;;;;;;5028948;28;20810;-63
2023/08/05 13:54:15;;;;;;;3.00;1.10;;;;;;;;;;5017627;28;20764;-63
2023/08/05 13:56:42;;;;;;;4.23;1.53;;;;;;;;;;5010123;28;20192;-64
2023/08/05 13:59:26;;;;;;;3.07;1.30;;;;;;;;;;5014104;28;20179;-63
2023/08/05 14:01:52;;;;;;;3.40;1.47;;;;;;;;;;5021636;28;20259;-63
2023/08/05 14:04:20;;;;;;;2.10;1.20;;;;;;;;;;5029907;28;20222;-63
2023/08/05 14:06:47;;;;;;;2.00;1.13;;;;;;;;;;5032194;28;20207;-64
2023/08/05 14:09:13;;;;;;;2.97;1.50;;;;;;;;;;5025186;28;20603;-64
2023/08/05 14:11:40;;;;;;;2.77;1.00;;;;;;;;;;5029305;28;20533;-63
2023/08/05 14:14:07;;;;;;;2.27;0.90;;;;;;;;;;5032051;28;20227;-62
2023/08/05 14:16:35;;;;;;;2.07;1.17;;;;;;;;;;5025476;28;20194;-63
2023/08/05 14:19:20;;;;;;;3.60;2.17;;;;;;;;;;5032388;28;20222;-63
2023/08/05 14:21:46;;;;;;;6.33;2.17;;;;;;;;;;5032008;28;20254;-63
2023/08/05 14:24:31;;;;;;;3.27;1.70;;;;;;;;;;5017413;28;20685;-62
2023/08/05 14:26:58;;;;;;;3.23;1.17;;;;;;;;;;5032275;28;20265;-63
2023/08/05 14:29:24;;;;;;;3.57;1.40;;;;;;;;;;5032983;28;20200;-62
2023/08/05 14:31:51;;;;;;;3.63;1.50;;;;;;;;;;5030599;28;20374;-62
2023/08/05 14:34:18;;;;;;;2.07;1.23;;;;;;;;;;5028364;28;20192;-63
2023/08/05 14:37:02;;;;;;;2.43;1.30;;;;;;;;;;5013177;28;20183;-63
2023/08/05 14:39:29;;;;;;;3.60;1.50;;;;;;;;;;5012869;28;20247;-62
2023/08/05 14:41:56;;;;;;;2.30;1.50;;;;;;;;;;5013117;28;20196;-62
2023/08/05 14:44:23;;;;;;;2.90;1.80;;;;;;;;;;5012867;28;20271;-63
2023/08/05 14:46:51;;;;;;;3.80;2.00;;;;;;;;;;5012809;28;20188;-67
2023/08/05 14:49:17;;;;;;;3.37;1.90;;;;;;;;;;5012702;28;20182;-67
2023/08/05 14:51:44;;;;;;;4.03;1.57;;;;;;;;;;5012091;28;20726;-61
2023/08/05 14:54:11;;;;;;;3.40;1.57;;;;;;;;;;5015239;28;20192;-61
2023/08/05 14:56:38;;;;;;;4.57;1.53;;;;;;;;;;5032337;28;20682;-62
2023/08/05 14:59:06;;;;;;;2.87;1.20;;;;;;;;;;5032347;28;20192;-61
2023/08/05 15:01:33;;;;;;;1.53;1.10;;;;;;;;;;5032056;28;20656;-61
2023/08/05 15:03:59;;;;;;;2.13;1.23;;;;;;;;;;5032357;28;20689;-62
2023/08/05 15:06:27;;;;;;;3.20;1.20;;;;;;;;;;5032369;28;20174;-61
2023/08/05 15:08:55;;;;;;;5.20;1.27;;;;;;;;;;5032311;28;20183;-61
2023/08/05 15:11:22;;;;;;;3.33;1.30;;;;;;;;;;5030752;28;20266;-62
2023/08/05 15:13:49;;;;;;;2.57;1.20;;;;;;;;;;5030698;28;20219;-61
2023/08/05 15:16:15;;;;;;;1.60;1.00;;;;;;;;;;5030833;28;20202;-60
2023/08/05 15:18:42;;;;;;;1.97;1.07;;;;;;;;;;5032221;28;20631;-61
2023/08/05 15:21:09;;;;;;;3.17;1.20;;;;;;;;;;5032421;28;20188;-62
2023/08/05 15:23:36;;;;;;;3.97;1.23;;;;;;;;;;5031752;28;20175;-67
2023/08/05 15:26:03;;;;;;;4.83;1.20;;;;;;;;;;5031976;28;20191;-67